DESVRES (62) - F

Date : 16/03/2014
Distance : 4,600 km

Place Nom Licence Catégorie Club Temps min/km CN à J-60 Points Différence Nouveau CN
1 BOUTIN Dominique 13838 H50 6205NO 0:54:22 11'49 4368 4894 +526 4389
2 EJSMONT Jean 5597 H65 6203NO 1:01:11 13'18 3949 4349 +400 3956
3 BAILLEUL Jean-Paul 9165 H65 4012AQ 1:02:38 13'36 4904 4248 -656 4860
4 PATURET Bertrand 2878 H65 6009PI 1:03:22 13'46 4172 4199 +27 4221
5 VANDECASTEELE Jérémie 29370 H35 6208NO 1:06:52 14'32 3979 3355
6 GOURLAIN Marguerite-marie 19155 D40 6205NO 1:17:01 16'44 2847 3455 +608 3095
7 VANDOMME Elodie 23560 D21 6208NO 1:17:45 16'54 3642 3422 -220 4000
8 LECOYER Regis 2884 H60 0207PI 1:19:15 17'13 2919 3358 +439 2977
9 LECOYER Annick 2885 D60 0207PI 1:19:28 17'16 2744 3348 +604 2816
10 ROLIN Charlotte 23947 D35 6208NO 1:20:30 17'30 3564 3305 -259 3685
11 GERBEAUX Marie-jeanne 22417 D60 6205NO 1:20:59 17'36 3357 3286 -71 3324
12 GERBEAUX Jean-paul 23596 H65 6205NO 1:26:26 18'47 3660 3079 -581 3550
13 LUTZ Jean-Marc 7107 H60 5116CA 1:26:50 18'52 3326 3064 -262 3451
14 PECQUEUR Sylvie 20425 D50 5906NO 1:27:03 18'55 3057 2310
15 RICHARD Nicole 14245 D65 0207PI 1:28:23 19'12 3313 3011 -302 3341
16 MOULIERE M-Bernadette 2888 D70 0207PI 1:29:58 19'33 3111 2958 -153 3144
17 BUTTIN Franck 25301 H45 6009PI 1:30:08 19'35 3177 2952 -225 3225
18 POULAIN Odile 1948 D50 5909NO 1:30:29 19'40 2695 2941 +246 2741
19 PONCE Bernard 971 H70 0801CA 1:31:03 19'47 3228 2922 -306 3247
20 LAMINETTE M-Odile 17201 D50 5907NO 1:31:29 19'53 2512 2909 +397 2762
21 PECQUEUR Michel 24382 H55 5906NO 1:33:02 20'13 2860 884
22 HUMBERTCLAUDE J-Paul 16205 H65 5909NO 1:40:04 21'45 4335 2659 -1676 4281
23 TORZ-DRUON Magali 10081 D60 5906NO 1:40:20 21'48 2161 2652 +491 2473
24 DELCUSE Patricia 29299 D35 6205NO 1:46:09 23'04 2507 2138
25 JUDAS Sylvaine 13635 D55 6208NO 1:51:14 24'10 1988 2392 +404 2201
26 JASKINA Catherine 28714 D50 6203NO 1:56:56 25'25 1713 2276 +563 2030
27 LUDEWIG-JAMES Carol 15894 D75 5907NO 2:05:56 27'22 2039 2113 +74 2054
TORZ Agathe 10084 D21 5906NO pm None 0 0
LEDUC Séverine 28901 D45 5906NO pm None 0 0